Terminal Aerodrome Forecast
Issued by NWS

Home | Current Version | Previous Version | Text Only | Print | Product List | Glossary On
Versions: 1 2 3 4 5 6 7 8 9 10 11 12 13 14 15 16
000
FTUS43 KFGF 261700
TAFTVF
TAF
KTVF 261739Z 2618/2718 33009KT P6SM OVC035
      TEMPO 2618/2622 5SM -SN BR OVC028
     FM262200 35010KT P6SM SCT025
     FM270200 33006KT P6SM SCT035
      AMD LTD TO CLD VIS AND WIND=

USA.gov is the U.S. government's official web portal to all federal, state and local government web resources and services.